sensor_id;sensor_type;location;lat;lon;timestamp;P1;durP1;ratioP1;P2;durP2;ratioP2
29878;SDS011;16752;53.364;-1.488;2023-03-23T00:09:22;3.75;;;0.88;;
29878;SDS011;16752;53.364;-1.488;2023-03-23T00:12:18;5.28;;;1.60;;
29878;SDS011;16752;53.364;-1.488;2023-03-23T00:15:03;4.18;;;1.50;;
29878;SDS011;16752;53.364;-1.488;2023-03-23T00:22:28;11.65;;;1.83;;
29878;SDS011;16752;53.364;-1.488;2023-03-23T00:25:20;3.67;;;1.27;;
29878;SDS011;16752;53.364;-1.488;2023-03-23T00:28:31;4.78;;;1.73;;
29878;SDS011;16752;53.364;-1.488;2023-03-23T00:35:25;5.50;;;2.03;;
29878;SDS011;16752;53.364;-1.488;2023-03-23T00:38:18;5.93;;;1.67;;
29878;SDS011;16752;53.364;-1.488;2023-03-23T00:41:11;3.03;;;1.70;;
29878;SDS011;16752;53.364;-1.488;2023-03-23T00:44:27;7.50;;;2.15;;
29878;SDS011;16752;53.364;-1.488;2023-03-23T00:51:09;7.82;;;2.00;;
29878;SDS011;16752;53.364;-1.488;2023-03-23T00:57:30;5.32;;;1.63;;
29878;SDS011;16752;53.364;-1.488;2023-03-23T01:03:47;7.53;;;1.60;;
29878;SDS011;16752;53.364;-1.488;2023-03-23T01:06:53;8.30;;;1.95;;
29878;SDS011;16752;53.364;-1.488;2023-03-23T01:12:49;11.48;;;1.80;;
29878;SDS011;16752;53.364;-1.488;2023-03-23T01:15:46;12.50;;;2.55;;
29878;SDS011;16752;53.364;-1.488;2023-03-23T01:18:45;6.43;;;1.83;;
29878;SDS011;16752;53.364;-1.488;2023-03-23T01:25:17;11.60;;;2.22;;
29878;SDS011;16752;53.364;-1.488;2023-03-23T01:28:01;7.68;;;1.55;;
29878;SDS011;16752;53.364;-1.488;2023-03-23T01:30:52;6.15;;;1.85;;
29878;SDS011;16752;53.364;-1.488;2023-03-23T01:34:05;8.77;;;2.27;;
29878;SDS011;16752;53.364;-1.488;2023-03-23T01:37:29;10.20;;;1.95;;
29878;SDS011;16752;53.364;-1.488;2023-03-23T01:40:37;12.60;;;2.45;;
29878;SDS011;16752;53.364;-1.488;2023-03-23T01:50:44;8.82;;;2.47;;
29878;SDS011;16752;53.364;-1.488;2023-03-23T02:10:17;13.90;;;3.25;;
29878;SDS011;16752;53.364;-1.488;2023-03-23T02:28:28;7.27;;;2.03;;
29878;SDS011;16752;53.364;-1.488;2023-03-23T02:34:44;6.90;;;1.90;;
29878;SDS011;16752;53.364;-1.488;2023-03-23T02:37:40;13.38;;;1.92;;
29878;SDS011;16752;53.364;-1.488;2023-03-23T02:40:45;13.13;;;2.95;;
29878;SDS011;16752;53.364;-1.488;2023-03-23T02:43:38;6.88;;;1.95;;
29878;SDS011;16752;53.364;-1.488;2023-03-23T02:50:02;13.27;;;2.05;;
29878;SDS011;16752;53.364;-1.488;2023-03-23T02:52:49;17.38;;;3.25;;
29878;SDS011;16752;53.364;-1.488;2023-03-23T02:55:41;13.13;;;2.50;;
29878;SDS011;16752;53.364;-1.488;2023-03-23T02:58:43;13.63;;;2.28;;
29878;SDS011;16752;53.364;-1.488;2023-03-23T03:12:04;6.30;;;1.98;;
29878;SDS011;16752;53.364;-1.488;2023-03-23T03:23:53;11.20;;;2.05;;
29878;SDS011;16752;53.364;-1.488;2023-03-23T03:26:46;11.20;;;2.45;;
29878;SDS011;16752;53.364;-1.488;2023-03-23T03:35:49;14.38;;;3.40;;
29878;SDS011;16752;53.364;-1.488;2023-03-23T03:41:34;13.48;;;2.88;;
29878;SDS011;16752;53.364;-1.488;2023-03-23T03:44:21;18.33;;;3.05;;
29878;SDS011;16752;53.364;-1.488;2023-03-23T03:47:09;12.88;;;2.75;;
29878;SDS011;16752;53.364;-1.488;2023-03-23T03:49:56;13.30;;;2.55;;
29878;SDS011;16752;53.364;-1.488;2023-03-23T03:53:19;10.55;;;2.17;;
29878;SDS011;16752;53.364;-1.488;2023-03-23T03:56:09;16.13;;;2.60;;
29878;SDS011;16752;53.364;-1.488;2023-03-23T04:01:57;10.85;;;3.03;;
29878;SDS011;16752;53.364;-1.488;2023-03-23T04:04:44;19.90;;;4.47;;
29878;SDS011;16752;53.364;-1.488;2023-03-23T04:07:53;15.38;;;3.17;;
29878;SDS011;16752;53.364;-1.488;2023-03-23T04:10:38;9.70;;;3.15;;
29878;SDS011;16752;53.364;-1.488;2023-03-23T04:13:23;13.77;;;3.28;;
29878;SDS011;16752;53.364;-1.488;2023-03-23T04:16:07;18.15;;;3.47;;
29878;SDS011;16752;53.364;-1.488;2023-03-23T04:18:58;12.33;;;4.43;;
29878;SDS011;16752;53.364;-1.488;2023-03-23T04:25:08;15.43;;;2.50;;
29878;SDS011;16752;53.364;-1.488;2023-03-23T04:27:58;10.25;;;3.58;;
29878;SDS011;16752;53.364;-1.488;2023-03-23T04:30:54;21.17;;;3.20;;
29878;SDS011;16752;53.364;-1.488;2023-03-23T04:34:10;25.58;;;3.92;;
29878;SDS011;16752;53.364;-1.488;2023-03-23T04:37:02;13.18;;;2.60;;
29878;SDS011;16752;53.364;-1.488;2023-03-23T04:39:49;14.35;;;3.17;;
29878;SDS011;16752;53.364;-1.488;2023-03-23T04:42:58;19.88;;;3.72;;
29878;SDS011;16752;53.364;-1.488;2023-03-23T04:46:00;17.60;;;3.92;;
29878;SDS011;16752;53.364;-1.488;2023-03-23T04:48:46;21.92;;;4.22;;
29878;SDS011;16752;53.364;-1.488;2023-03-23T04:51:32;12.52;;;4.05;;
29878;SDS011;16752;53.364;-1.488;2023-03-23T05:06:35;20.02;;;3.67;;
29878;SDS011;16752;53.364;-1.488;2023-03-23T05:12:54;18.65;;;3.55;;
29878;SDS011;16752;53.364;-1.488;2023-03-23T05:18:57;14.40;;;3.17;;
29878;SDS011;16752;53.364;-1.488;2023-03-23T05:22:01;21.67;;;3.92;;
29878;SDS011;16752;53.364;-1.488;2023-03-23T05:27:38;20.25;;;3.70;;
29878;SDS011;16752;53.364;-1.488;2023-03-23T05:30:28;21.40;;;4.25;;
29878;SDS011;16752;53.364;-1.488;2023-03-23T05:33:20;22.35;;;3.60;;
29878;SDS011;16752;53.364;-1.488;2023-03-23T05:41:29;21.35;;;4.15;;
29878;SDS011;16752;53.364;-1.488;2023-03-23T05:44:13;24.17;;;3.38;;
29878;SDS011;16752;53.364;-1.488;2023-03-23T05:47:07;18.73;;;3.72;;
29878;SDS011;16752;53.364;-1.488;2023-03-23T05:53:02;20.52;;;4.72;;
29878;SDS011;16752;53.364;-1.488;2023-03-23T05:55:49;27.15;;;4.70;;
29878;SDS011;16752;53.364;-1.488;2023-03-23T05:58:50;25.75;;;3.90;;
29878;SDS011;16752;53.364;-1.488;2023-03-23T06:01:40;15.98;;;4.22;;
29878;SDS011;16752;53.364;-1.488;2023-03-23T06:04:24;27.73;;;3.83;;
29878;SDS011;16752;53.364;-1.488;2023-03-23T06:07:19;18.75;;;3.67;;
29878;SDS011;16752;53.364;-1.488;2023-03-23T06:10:23;21.02;;;4.22;;
29878;SDS011;16752;53.364;-1.488;2023-03-23T06:13:08;25.83;;;4.85;;
29878;SDS011;16752;53.364;-1.488;2023-03-23T06:19:05;18.98;;;3.92;;
29878;SDS011;16752;53.364;-1.488;2023-03-23T06:21:59;24.33;;;5.00;;
29878;SDS011;16752;53.364;-1.488;2023-03-23T06:25:09;28.17;;;4.72;;
29878;SDS011;16752;53.364;-1.488;2023-03-23T06:27:58;24.88;;;4.82;;
29878;SDS011;16752;53.364;-1.488;2023-03-23T06:30:50;26.33;;;4.18;;
29878;SDS011;16752;53.364;-1.488;2023-03-23T06:33:50;20.40;;;4.22;;
29878;SDS011;16752;53.364;-1.488;2023-03-23T06:36:56;24.45;;;5.55;;
29878;SDS011;16752;53.364;-1.488;2023-03-23T06:39:59;27.00;;;5.78;;
29878;SDS011;16752;53.364;-1.488;2023-03-23T06:43:00;22.33;;;4.47;;
29878;SDS011;16752;53.364;-1.488;2023-03-23T06:46:03;17.80;;;3.65;;
29878;SDS011;16752;53.364;-1.488;2023-03-23T06:48:53;18.85;;;4.28;;
29878;SDS011;16752;53.364;-1.488;2023-03-23T06:51:38;24.88;;;4.72;;
29878;SDS011;16752;53.364;-1.488;2023-03-23T06:54:23;24.05;;;4.28;;
29878;SDS011;16752;53.364;-1.488;2023-03-23T06:57:11;25.75;;;5.32;;
29878;SDS011;16752;53.364;-1.488;2023-03-23T07:00:03;17.30;;;5.93;;
29878;SDS011;16752;53.364;-1.488;2023-03-23T07:02:59;20.02;;;4.15;;
29878;SDS011;16752;53.364;-1.488;2023-03-23T07:05:47;24.83;;;4.78;;
29878;SDS011;16752;53.364;-1.488;2023-03-23T07:08:35;26.13;;;4.93;;
29878;SDS011;16752;53.364;-1.488;2023-03-23T07:11:51;23.55;;;4.43;;
29878;SDS011;16752;53.364;-1.488;2023-03-23T07:14:35;31.10;;;5.13;;
29878;SDS011;16752;53.364;-1.488;2023-03-23T07:17:26;28.50;;;5.40;;
29878;SDS011;16752;53.364;-1.488;2023-03-23T07:20:19;37.72;;;5.82;;
29878;SDS011;16752;53.364;-1.488;2023-03-23T07:23:20;22.60;;;5.45;;
29878;SDS011;16752;53.364;-1.488;2023-03-23T07:26:07;25.60;;;4.65;;
29878;SDS011;16752;53.364;-1.488;2023-03-23T07:28:54;25.58;;;4.70;;
29878;SDS011;16752;53.364;-1.488;2023-03-23T07:31:39;29.33;;;4.95;;
29878;SDS011;16752;53.364;-1.488;2023-03-23T07:34:36;25.40;;;5.45;;
29878;SDS011;16752;53.364;-1.488;2023-03-23T07:41:01;29.88;;;5.35;;
29878;SDS011;16752;53.364;-1.488;2023-03-23T07:43:46;17.50;;;4.38;;
29878;SDS011;16752;53.364;-1.488;2023-03-23T07:46:52;29.05;;;4.57;;
29878;SDS011;16752;53.364;-1.488;2023-03-23T07:50:20;30.17;;;4.80;;
29878;SDS011;16752;53.364;-1.488;2023-03-23T07:53:18;29.13;;;6.78;;
29878;SDS011;16752;53.364;-1.488;2023-03-23T07:56:09;34.40;;;6.00;;
29878;SDS011;16752;53.364;-1.488;2023-03-23T07:59:03;31.00;;;5.05;;
29878;SDS011;16752;53.364;-1.488;2023-03-23T08:01:52;30.02;;;5.18;;
29878;SDS011;16752;53.364;-1.488;2023-03-23T08:04:39;16.42;;;4.72;;
29878;SDS011;16752;53.364;-1.488;2023-03-23T08:07:32;24.83;;;5.32;;
29878;SDS011;16752;53.364;-1.488;2023-03-23T08:14:15;41.03;;;6.53;;
29878;SDS011;16752;53.364;-1.488;2023-03-23T08:17:15;23.52;;;5.07;;
29878;SDS011;16752;53.364;-1.488;2023-03-23T08:20:09;18.88;;;4.30;;
29878;SDS011;16752;53.364;-1.488;2023-03-23T08:23:03;21.27;;;4.40;;
29878;SDS011;16752;53.364;-1.488;2023-03-23T08:25:53;14.90;;;3.88;;
29878;SDS011;16752;53.364;-1.488;2023-03-23T08:28:49;27.20;;;5.30;;
29878;SDS011;16752;53.364;-1.488;2023-03-23T08:31:50;21.88;;;4.53;;
29878;SDS011;16752;53.364;-1.488;2023-03-23T08:34:49;21.60;;;4.47;;
29878;SDS011;16752;53.364;-1.488;2023-03-23T08:37:46;19.58;;;4.32;;
29878;SDS011;16752;53.364;-1.488;2023-03-23T08:40:44;23.80;;;6.25;;
29878;SDS011;16752;53.364;-1.488;2023-03-23T08:43:54;21.45;;;4.57;;
29878;SDS011;16752;53.364;-1.488;2023-03-23T08:46:40;20.90;;;4.90;;
29878;SDS011;16752;53.364;-1.488;2023-03-23T08:49:29;21.48;;;4.78;;
29878;SDS011;16752;53.364;-1.488;2023-03-23T08:52:33;22.38;;;3.72;;
29878;SDS011;16752;53.364;-1.488;2023-03-23T08:55:26;21.58;;;4.70;;
29878;SDS011;16752;53.364;-1.488;2023-03-23T08:58:20;26.15;;;4.60;;
29878;SDS011;16752;53.364;-1.488;2023-03-23T09:01:07;19.58;;;4.63;;
29878;SDS011;16752;53.364;-1.488;2023-03-23T09:03:52;25.70;;;5.43;;
29878;SDS011;16752;53.364;-1.488;2023-03-23T09:06:59;19.05;;;4.40;;
29878;SDS011;16752;53.364;-1.488;2023-03-23T09:09:44;24.20;;;4.97;;
29878;SDS011;16752;53.364;-1.488;2023-03-23T09:12:45;17.15;;;4.70;;
29878;SDS011;16752;53.364;-1.488;2023-03-23T09:15:34;31.35;;;5.40;;
29878;SDS011;16752;53.364;-1.488;2023-03-23T09:18:20;23.65;;;3.58;;
29878;SDS011;16752;53.364;-1.488;2023-03-23T09:21:05;21.58;;;3.92;;
29878;SDS011;16752;53.364;-1.488;2023-03-23T09:23:59;19.70;;;4.68;;
29878;SDS011;16752;53.364;-1.488;2023-03-23T09:26:45;25.30;;;5.03;;
29878;SDS011;16752;53.364;-1.488;2023-03-23T09:29:35;18.58;;;4.07;;
29878;SDS011;16752;53.364;-1.488;2023-03-23T09:36:04;26.25;;;4.55;;
29878;SDS011;16752;53.364;-1.488;2023-03-23T09:38:52;26.05;;;4.50;;
29878;SDS011;16752;53.364;-1.488;2023-03-23T09:45:12;13.05;;;3.20;;
29878;SDS011;16752;53.364;-1.488;2023-03-23T09:48:49;22.05;;;3.95;;
29878;SDS011;16752;53.364;-1.488;2023-03-23T09:51:48;15.63;;;3.65;;
29878;SDS011;16752;53.364;-1.488;2023-03-23T09:54:59;16.67;;;4.25;;
29878;SDS011;16752;53.364;-1.488;2023-03-23T10:01:16;19.05;;;4.53;;
29878;SDS011;16752;53.364;-1.488;2023-03-23T10:04:17;18.63;;;4.25;;
29878;SDS011;16752;53.364;-1.488;2023-03-23T10:08:00;17.38;;;4.25;;
29878;SDS011;16752;53.364;-1.488;2023-03-23T10:11:15;15.57;;;4.13;;
29878;SDS011;16752;53.364;-1.488;2023-03-23T10:18:29;27.70;;;4.53;;
29878;SDS011;16752;53.364;-1.488;2023-03-23T10:21:39;16.33;;;4.43;;
29878;SDS011;16752;53.364;-1.488;2023-03-23T10:24:49;22.92;;;5.38;;
29878;SDS011;16752;53.364;-1.488;2023-03-23T10:28:18;21.40;;;4.13;;
29878;SDS011;16752;53.364;-1.488;2023-03-23T10:35:00;17.65;;;3.97;;
29878;SDS011;16752;53.364;-1.488;2023-03-23T10:38:23;17.02;;;4.38;;
29878;SDS011;16752;53.364;-1.488;2023-03-23T10:41:13;17.40;;;4.10;;
29878;SDS011;16752;53.364;-1.488;2023-03-23T10:44:07;21.35;;;4.22;;
29878;SDS011;16752;53.364;-1.488;2023-03-23T10:53:56;19.70;;;3.97;;
29878;SDS011;16752;53.364;-1.488;2023-03-23T11:00:08;18.95;;;4.28;;
29878;SDS011;16752;53.364;-1.488;2023-03-23T11:06:29;19.83;;;4.30;;
29878;SDS011;16752;53.364;-1.488;2023-03-23T11:09:21;16.58;;;4.25;;
29878;SDS011;16752;53.364;-1.488;2023-03-23T11:12:25;16.30;;;4.18;;
29878;SDS011;16752;53.364;-1.488;2023-03-23T11:19:00;18.73;;;4.07;;
29878;SDS011;16752;53.364;-1.488;2023-03-23T11:22:27;17.60;;;4.45;;
29878;SDS011;16752;53.364;-1.488;2023-03-23T11:25:22;14.35;;;3.90;;
29878;SDS011;16752;53.364;-1.488;2023-03-23T11:28:21;21.20;;;3.33;;
29878;SDS011;16752;53.364;-1.488;2023-03-23T11:31:21;16.80;;;3.78;;
29878;SDS011;16752;53.364;-1.488;2023-03-23T11:34:29;18.23;;;4.13;;
29878;SDS011;16752;53.364;-1.488;2023-03-23T11:37:28;17.08;;;3.63;;
29878;SDS011;16752;53.364;-1.488;2023-03-23T11:40:21;17.27;;;3.28;;
29878;SDS011;16752;53.364;-1.488;2023-03-23T11:43:21;16.42;;;3.72;;
29878;SDS011;16752;53.364;-1.488;2023-03-23T11:46:30;14.45;;;3.55;;
29878;SDS011;16752;53.364;-1.488;2023-03-23T11:53:34;20.33;;;3.80;;
29878;SDS011;16752;53.364;-1.488;2023-03-23T11:56:06;11.52;;;2.50;;
29878;SDS011;16752;53.364;-1.488;2023-03-23T11:59:15;18.27;;;3.45;;
29878;SDS011;16752;53.364;-1.488;2023-03-23T12:09:01;14.95;;;3.80;;
29878;SDS011;16752;53.364;-1.488;2023-03-23T12:12:03;15.68;;;4.00;;
29878;SDS011;16752;53.364;-1.488;2023-03-23T12:15:14;15.18;;;3.53;;
29878;SDS011;16752;53.364;-1.488;2023-03-23T12:18:19;15.65;;;3.58;;
29878;SDS011;16752;53.364;-1.488;2023-03-23T12:21:31;10.65;;;2.90;;
29878;SDS011;16752;53.364;-1.488;2023-03-23T12:27:51;13.63;;;3.15;;
29878;SDS011;16752;53.364;-1.488;2023-03-23T12:31:08;16.50;;;3.72;;
29878;SDS011;16752;53.364;-1.488;2023-03-23T12:43:28;14.52;;;3.70;;
29878;SDS011;16752;53.364;-1.488;2023-03-23T12:49:24;11.20;;;3.80;;
29878;SDS011;16752;53.364;-1.488;2023-03-23T12:52:39;14.60;;;4.72;;
29878;SDS011;16752;53.364;-1.488;2023-03-23T12:55:44;9.25;;;2.15;;
29878;SDS011;16752;53.364;-1.488;2023-03-23T12:58:34;7.13;;;1.60;;
29878;SDS011;16752;53.364;-1.488;2023-03-23T13:01:28;5.50;;;2.35;;
29878;SDS011;16752;53.364;-1.488;2023-03-23T13:04:25;9.55;;;3.72;;
29878;SDS011;16752;53.364;-1.488;2023-03-23T13:07:20;10.18;;;3.45;;
29878;SDS011;16752;53.364;-1.488;2023-03-23T13:13:03;24.40;;;8.27;;
29878;SDS011;16752;53.364;-1.488;2023-03-23T13:22:18;10.00;;;4.25;;
29878;SDS011;16752;53.364;-1.488;2023-03-23T13:25:18;13.52;;;4.47;;
29878;SDS011;16752;53.364;-1.488;2023-03-23T13:28:20;8.43;;;2.53;;
29878;SDS011;16752;53.364;-1.488;2023-03-23T13:31:13;16.27;;;3.53;;
29878;SDS011;16752;53.364;-1.488;2023-03-23T13:34:24;7.60;;;1.95;;
29878;SDS011;16752;53.364;-1.488;2023-03-23T13:37:22;9.27;;;2.33;;
29878;SDS011;16752;53.364;-1.488;2023-03-23T13:43:11;9.45;;;2.40;;
29878;SDS011;16752;53.364;-1.488;2023-03-23T13:46:06;12.70;;;3.90;;
29878;SDS011;16752;53.364;-1.488;2023-03-23T13:49:15;18.23;;;3.08;;
29878;SDS011;16752;53.364;-1.488;2023-03-23T13:52:14;11.80;;;3.15;;
29878;SDS011;16752;53.364;-1.488;2023-03-23T13:55:18;10.00;;;2.75;;
29878;SDS011;16752;53.364;-1.488;2023-03-23T13:58:26;10.02;;;2.97;;
29878;SDS011;16752;53.364;-1.488;2023-03-23T14:01:15;14.32;;;3.20;;
29878;SDS011;16752;53.364;-1.488;2023-03-23T14:04:03;13.93;;;3.85;;
29878;SDS011;16752;53.364;-1.488;2023-03-23T14:06:50;14.30;;;3.42;;
29878;SDS011;16752;53.364;-1.488;2023-03-23T14:09:56;9.85;;;3.38;;
29878;SDS011;16752;53.364;-1.488;2023-03-23T14:15:17;13.43;;;4.32;;
29878;SDS011;16752;53.364;-1.488;2023-03-23T14:18:02;14.93;;;3.97;;
29878;SDS011;16752;53.364;-1.488;2023-03-23T14:20:48;11.77;;;3.65;;
29878;SDS011;16752;53.364;-1.488;2023-03-23T14:24:20;13.05;;;3.70;;
29878;SDS011;16752;53.364;-1.488;2023-03-23T14:30:00;12.60;;;3.20;;
29878;SDS011;16752;53.364;-1.488;2023-03-23T14:32:52;13.85;;;3.88;;
29878;SDS011;16752;53.364;-1.488;2023-03-23T14:35:40;9.35;;;3.40;;
29878;SDS011;16752;53.364;-1.488;2023-03-23T14:38:59;17.35;;;3.72;;
29878;SDS011;16752;53.364;-1.488;2023-03-23T14:41:50;13.55;;;4.00;;
29878;SDS011;16752;53.364;-1.488;2023-03-23T14:45:01;12.18;;;3.70;;
29878;SDS011;16752;53.364;-1.488;2023-03-23T14:47:49;8.07;;;3.13;;
29878;SDS011;16752;53.364;-1.488;2023-03-23T14:50:48;10.85;;;3.08;;
29878;SDS011;16752;53.364;-1.488;2023-03-23T14:56:37;14.40;;;2.92;;
29878;SDS011;16752;53.364;-1.488;2023-03-23T14:59:26;8.38;;;2.80;;
29878;SDS011;16752;53.364;-1.488;2023-03-23T15:02:29;8.73;;;2.95;;
29878;SDS011;16752;53.364;-1.488;2023-03-23T15:05:29;12.18;;;3.22;;
29878;SDS011;16752;53.364;-1.488;2023-03-23T15:08:35;9.90;;;2.47;;
29878;SDS011;16752;53.364;-1.488;2023-03-23T15:14:46;15.48;;;3.58;;
29878;SDS011;16752;53.364;-1.488;2023-03-23T15:17:34;14.83;;;3.50;;
29878;SDS011;16752;53.364;-1.488;2023-03-23T15:20:43;9.02;;;2.83;;
29878;SDS011;16752;53.364;-1.488;2023-03-23T15:23:34;12.20;;;3.30;;
29878;SDS011;16752;53.364;-1.488;2023-03-23T15:26:33;13.75;;;3.65;;
29878;SDS011;16752;53.364;-1.488;2023-03-23T15:29:26;15.52;;;3.47;;
29878;SDS011;16752;53.364;-1.488;2023-03-23T15:32:12;15.93;;;3.80;;
29878;SDS011;16752;53.364;-1.488;2023-03-23T15:41:26;9.05;;;3.50;;
29878;SDS011;16752;53.364;-1.488;2023-03-23T15:44:21;10.38;;;3.28;;
29878;SDS011;16752;53.364;-1.488;2023-03-23T15:47:15;14.02;;;3.22;;
29878;SDS011;16752;53.364;-1.488;2023-03-23T15:50:03;11.27;;;2.83;;
29878;SDS011;16752;53.364;-1.488;2023-03-23T15:52:53;12.77;;;3.80;;
29878;SDS011;16752;53.364;-1.488;2023-03-23T15:55:42;16.25;;;3.13;;
29878;SDS011;16752;53.364;-1.488;2023-03-23T15:58:27;11.55;;;3.17;;
29878;SDS011;16752;53.364;-1.488;2023-03-23T16:01:24;12.85;;;3.67;;
29878;SDS011;16752;53.364;-1.488;2023-03-23T16:04:35;15.90;;;3.95;;
29878;SDS011;16752;53.364;-1.488;2023-03-23T16:07:21;21.60;;;4.32;;
29878;SDS011;16752;53.364;-1.488;2023-03-23T16:10:19;20.38;;;3.97;;
29878;SDS011;16752;53.364;-1.488;2023-03-23T16:13:26;19.65;;;4.50;;
29878;SDS011;16752;53.364;-1.488;2023-03-23T16:16:24;14.27;;;3.05;;
29878;SDS011;16752;53.364;-1.488;2023-03-23T16:19:21;21.75;;;4.50;;
29878;SDS011;16752;53.364;-1.488;2023-03-23T16:22:38;17.42;;;3.85;;
29878;SDS011;16752;53.364;-1.488;2023-03-23T16:25:24;17.70;;;3.55;;
29878;SDS011;16752;53.364;-1.488;2023-03-23T16:28:11;16.80;;;3.22;;
29878;SDS011;16752;53.364;-1.488;2023-03-23T16:30:57;14.70;;;3.25;;
29878;SDS011;16752;53.364;-1.488;2023-03-23T16:33:42;17.33;;;4.05;;
29878;SDS011;16752;53.364;-1.488;2023-03-23T16:36:43;23.35;;;4.38;;
29878;SDS011;16752;53.364;-1.488;2023-03-23T16:39:27;20.85;;;4.43;;
29878;SDS011;16752;53.364;-1.488;2023-03-23T16:42:16;14.50;;;4.22;;
29878;SDS011;16752;53.364;-1.488;2023-03-23T16:48:05;16.40;;;3.22;;
29878;SDS011;16752;53.364;-1.488;2023-03-23T16:50:52;15.40;;;3.78;;
29878;SDS011;16752;53.364;-1.488;2023-03-23T16:53:41;16.60;;;4.50;;
29878;SDS011;16752;53.364;-1.488;2023-03-23T16:56:30;11.63;;;4.10;;
29878;SDS011;16752;53.364;-1.488;2023-03-23T16:59:19;11.75;;;3.25;;
29878;SDS011;16752;53.364;-1.488;2023-03-23T17:02:03;17.48;;;4.38;;
29878;SDS011;16752;53.364;-1.488;2023-03-23T17:04:49;13.63;;;3.60;;
29878;SDS011;16752;53.364;-1.488;2023-03-23T17:07:36;12.93;;;3.35;;
29878;SDS011;16752;53.364;-1.488;2023-03-23T17:10:26;15.30;;;3.33;;
29878;SDS011;16752;53.364;-1.488;2023-03-23T17:13:12;12.95;;;3.75;;
29878;SDS011;16752;53.364;-1.488;2023-03-23T17:15:58;15.77;;;3.50;;
29878;SDS011;16752;53.364;-1.488;2023-03-23T17:18:47;17.85;;;4.53;;
29878;SDS011;16752;53.364;-1.488;2023-03-23T17:21:35;15.77;;;3.95;;
29878;SDS011;16752;53.364;-1.488;2023-03-23T17:24:20;17.55;;;4.20;;
29878;SDS011;16752;53.364;-1.488;2023-03-23T17:27:04;24.90;;;4.38;;
29878;SDS011;16752;53.364;-1.488;2023-03-23T17:29:49;15.88;;;3.40;;
29878;SDS011;16752;53.364;-1.488;2023-03-23T17:32:48;20.65;;;4.45;;
29878;SDS011;16752;53.364;-1.488;2023-03-23T17:35:33;22.70;;;4.90;;
29878;SDS011;16752;53.364;-1.488;2023-03-23T17:38:18;17.67;;;4.32;;
29878;SDS011;16752;53.364;-1.488;2023-03-23T17:41:16;19.20;;;4.65;;
29878;SDS011;16752;53.364;-1.488;2023-03-23T17:44:04;17.42;;;4.28;;
29878;SDS011;16752;53.364;-1.488;2023-03-23T17:46:49;12.88;;;3.80;;
29878;SDS011;16752;53.364;-1.488;2023-03-23T17:49:33;16.40;;;4.07;;
29878;SDS011;16752;53.364;-1.488;2023-03-23T17:52:17;15.85;;;4.13;;
29878;SDS011;16752;53.364;-1.488;2023-03-23T17:55:04;23.67;;;4.53;;
29878;SDS011;16752;53.364;-1.488;2023-03-23T17:57:52;12.50;;;3.58;;
29878;SDS011;16752;53.364;-1.488;2023-03-23T18:00:37;12.80;;;3.88;;
29878;SDS011;16752;53.364;-1.488;2023-03-23T18:03:24;15.82;;;4.25;;
29878;SDS011;16752;53.364;-1.488;2023-03-23T18:06:20;15.13;;;4.43;;
29878;SDS011;16752;53.364;-1.488;2023-03-23T18:09:06;9.23;;;3.28;;
29878;SDS011;16752;53.364;-1.488;2023-03-23T18:12:16;9.95;;;3.25;;
29878;SDS011;16752;53.364;-1.488;2023-03-23T18:15:17;14.55;;;4.53;;
29878;SDS011;16752;53.364;-1.488;2023-03-23T18:18:03;23.33;;;6.95;;
29878;SDS011;16752;53.364;-1.488;2023-03-23T18:21:05;14.00;;;4.63;;
29878;SDS011;16752;53.364;-1.488;2023-03-23T18:23:54;17.42;;;3.50;;
29878;SDS011;16752;53.364;-1.488;2023-03-23T18:26:55;13.70;;;3.45;;
29878;SDS011;16752;53.364;-1.488;2023-03-23T18:29:41;9.02;;;2.95;;
29878;SDS011;16752;53.364;-1.488;2023-03-23T18:32:25;9.35;;;3.22;;
29878;SDS011;16752;53.364;-1.488;2023-03-23T18:35:10;12.38;;;3.88;;
29878;SDS011;16752;53.364;-1.488;2023-03-23T18:37:56;18.63;;;3.78;;
29878;SDS011;16752;53.364;-1.488;2023-03-23T18:40:41;14.25;;;3.25;;
29878;SDS011;16752;53.364;-1.488;2023-03-23T18:43:27;11.90;;;2.97;;
29878;SDS011;16752;53.364;-1.488;2023-03-23T18:46:13;7.80;;;2.65;;
29878;SDS011;16752;53.364;-1.488;2023-03-23T18:48:58;6.18;;;2.60;;
29878;SDS011;16752;53.364;-1.488;2023-03-23T18:51:43;9.23;;;3.00;;
29878;SDS011;16752;53.364;-1.488;2023-03-23T18:54:28;7.13;;;1.90;;
29878;SDS011;16752;53.364;-1.488;2023-03-23T18:57:20;6.18;;;2.42;;
29878;SDS011;16752;53.364;-1.488;2023-03-23T19:00:08;6.88;;;2.78;;
29878;SDS011;16752;53.364;-1.488;2023-03-23T19:03:06;10.65;;;3.20;;
29878;SDS011;16752;53.364;-1.488;2023-03-23T19:12:31;5.00;;;2.45;;
29878;SDS011;16752;53.364;-1.488;2023-03-23T19:15:27;7.47;;;2.50;;
29878;SDS011;16752;53.364;-1.488;2023-03-23T19:46:12;10.77;;;4.35;;
29878;SDS011;16752;53.364;-1.488;2023-03-23T19:52:49;8.52;;;3.10;;
29878;SDS011;16752;53.364;-1.488;2023-03-23T19:55:43;10.23;;;4.38;;
29878;SDS011;16752;53.364;-1.488;2023-03-23T19:58:41;7.00;;;3.08;;
29878;SDS011;16752;53.364;-1.488;2023-03-23T20:01:31;13.65;;;4.45;;
29878;SDS011;16752;53.364;-1.488;2023-03-23T20:04:27;7.25;;;3.42;;
29878;SDS011;16752;53.364;-1.488;2023-03-23T20:07:35;8.45;;;3.85;;
29878;SDS011;16752;53.364;-1.488;2023-03-23T20:10:19;8.63;;;3.25;;
29878;SDS011;16752;53.364;-1.488;2023-03-23T20:13:16;8.32;;;3.70;;
29878;SDS011;16752;53.364;-1.488;2023-03-23T20:21:46;10.75;;;3.80;;
29878;SDS011;16752;53.364;-1.488;2023-03-23T20:25:24;19.53;;;3.90;;
29878;SDS011;16752;53.364;-1.488;2023-03-23T20:28:34;9.35;;;4.30;;
29878;SDS011;16752;53.364;-1.488;2023-03-23T20:31:28;11.25;;;4.75;;
29878;SDS011;16752;53.364;-1.488;2023-03-23T20:34:21;12.48;;;3.47;;
29878;SDS011;16752;53.364;-1.488;2023-03-23T20:37:12;16.42;;;4.20;;
29878;SDS011;16752;53.364;-1.488;2023-03-23T20:40:01;8.93;;;3.55;;
29878;SDS011;16752;53.364;-1.488;2023-03-23T20:43:00;10.68;;;3.67;;
29878;SDS011;16752;53.364;-1.488;2023-03-23T20:46:09;7.93;;;2.83;;
29878;SDS011;16752;53.364;-1.488;2023-03-23T20:49:00;12.25;;;4.03;;
29878;SDS011;16752;53.364;-1.488;2023-03-23T20:51:45;10.43;;;3.33;;
29878;SDS011;16752;53.364;-1.488;2023-03-23T20:54:29;7.35;;;3.13;;
29878;SDS011;16752;53.364;-1.488;2023-03-23T20:57:15;11.65;;;3.38;;
29878;SDS011;16752;53.364;-1.488;2023-03-23T21:00:05;9.15;;;3.35;;
29878;SDS011;16752;53.364;-1.488;2023-03-23T21:05:47;6.88;;;2.90;;
29878;SDS011;16752;53.364;-1.488;2023-03-23T21:08:44;6.15;;;2.55;;
29878;SDS011;16752;53.364;-1.488;2023-03-23T21:11:45;5.80;;;2.60;;
29878;SDS011;16752;53.364;-1.488;2023-03-23T21:14:31;10.32;;;3.42;;
29878;SDS011;16752;53.364;-1.488;2023-03-23T21:17:25;5.38;;;2.53;;
29878;SDS011;16752;53.364;-1.488;2023-03-23T21:20:30;5.70;;;2.67;;
29878;SDS011;16752;53.364;-1.488;2023-03-23T21:26:23;4.40;;;2.75;;
29878;SDS011;16752;53.364;-1.488;2023-03-23T21:38:03;12.10;;;3.63;;
29878;SDS011;16752;53.364;-1.488;2023-03-23T21:41:07;7.78;;;3.13;;
29878;SDS011;16752;53.364;-1.488;2023-03-23T21:43:56;7.97;;;3.33;;
29878;SDS011;16752;53.364;-1.488;2023-03-23T21:52:48;5.68;;;2.28;;
29878;SDS011;16752;53.364;-1.488;2023-03-23T22:15:26;7.38;;;2.47;;
29878;SDS011;16752;53.364;-1.488;2023-03-23T22:18:12;7.82;;;2.72;;
29878;SDS011;16752;53.364;-1.488;2023-03-23T22:27:15;4.68;;;2.17;;
29878;SDS011;16752;53.364;-1.488;2023-03-23T22:30:02;8.80;;;2.70;;
29878;SDS011;16752;53.364;-1.488;2023-03-23T22:32:59;5.20;;;3.03;;
29878;SDS011;16752;53.364;-1.488;2023-03-23T22:35:55;5.18;;;2.33;;
29878;SDS011;16752;53.364;-1.488;2023-03-23T22:41:31;8.50;;;2.88;;
29878;SDS011;16752;53.364;-1.488;2023-03-23T22:47:07;8.45;;;3.67;;
29878;SDS011;16752;53.364;-1.488;2023-03-23T22:49:52;7.43;;;3.40;;
29878;SDS011;16752;53.364;-1.488;2023-03-23T22:52:39;7.40;;;2.60;;